createdAt,value
2023-04-09T00:01:09.935Z,97187.72
2023-04-09T00:03:39.044Z,97094.66
2023-04-09T00:06:12.499Z,97184.06
2023-04-09T00:08:42.086Z,97215.63
2023-04-09T00:11:10.397Z,97241.25
2023-04-09T00:13:39.845Z,97194.91
2023-04-09T00:16:10.309Z,97202.41
2023-04-09T00:18:38.530Z,97155.97
2023-04-09T00:21:08.476Z,97164.47
2023-04-09T00:23:36.930Z,97162.75
2023-04-09T00:26:05.441Z,97163.72
2023-04-09T00:28:33.612Z,97181.81
2023-04-09T00:31:01.854Z,97134.28
2023-04-09T00:33:31.500Z,97189.44
2023-04-09T00:35:59.779Z,97201.09
2023-04-09T00:38:28.151Z,97181.72
2023-04-09T00:40:56.404Z,97132.88
2023-04-09T00:43:24.605Z,97184.72
2023-04-09T00:45:53.049Z,97225.84
2023-04-09T00:48:21.944Z,97173.53
2023-04-09T00:50:51.552Z,97186.22
2023-04-09T00:53:19.940Z,97217.94
2023-04-09T00:55:48.279Z,97202.81
2023-04-09T00:58:17.099Z,97170.47
2023-04-09T01:00:45.326Z,97163.34
2023-04-09T01:03:13.996Z,97205.19
2023-04-09T01:05:54.889Z,97216.22
2023-04-09T01:08:36.151Z,97198.06
2023-04-09T01:11:12.550Z,97196.53
2023-04-09T01:13:48.754Z,97212.09
2023-04-09T01:16:19.897Z,97175.75
2023-04-09T01:18:54.495Z,97188.31
2023-04-09T01:21:32.572Z,97196.47
2023-04-09T01:24:16.844Z,97214.00
2023-04-09T01:26:58.602Z,97167.19
2023-04-09T01:29:40.130Z,97214.00
2023-04-09T01:32:10.545Z,97175.53
2023-04-09T01:34:39.641Z,97197.13
2023-04-09T01:37:09.627Z,97213.19
2023-04-09T01:39:39.684Z,97211.88
2023-04-09T01:42:11.243Z,97203.59
2023-04-09T01:44:41.975Z,97161.50
2023-04-09T01:47:10.676Z,97150.44
2023-04-09T01:49:41.288Z,97197.16
2023-04-09T01:52:10.105Z,97135.13
2023-04-09T01:54:38.380Z,97213.56
2023-04-09T01:57:06.697Z,97163.91
2023-04-09T01:59:34.952Z,97162.81
2023-04-09T02:02:12.117Z,97198.94
2023-04-09T02:04:45.658Z,97201.69
2023-04-09T02:07:26.278Z,97211.41
2023-04-09T02:09:55.673Z,97180.78
2023-04-09T02:12:26.035Z,97207.00
2023-04-09T02:14:55.880Z,97164.81
2023-04-09T02:17:25.578Z,97203.53
2023-04-09T02:19:53.834Z,97221.28
2023-04-09T02:22:22.197Z,97176.34
2023-04-09T02:24:50.403Z,97134.19
2023-04-09T02:27:18.995Z,97195.47
2023-04-09T02:29:47.424Z,97106.63
2023-04-09T02:32:16.334Z,97209.28
2023-04-09T02:34:47.478Z,97154.81
2023-04-09T02:37:15.715Z,97146.28
2023-04-09T02:39:43.934Z,97175.78
2023-04-09T02:42:12.095Z,97172.94
2023-04-09T02:44:40.333Z,97165.66
2023-04-09T02:47:08.484Z,97213.31
2023-04-09T02:49:38.822Z,97195.63
2023-04-09T02:52:08.569Z,97150.19
2023-04-09T02:54:36.724Z,97166.88
2023-04-09T02:57:05.605Z,97180.28
2023-04-09T02:59:35.770Z,97229.59
2023-04-09T03:02:04.135Z,97203.47
2023-04-09T03:04:32.490Z,97214.72
2023-04-09T03:07:00.683Z,97149.59
2023-04-09T03:09:30.778Z,97146.97
2023-04-09T03:11:59.037Z,97157.69
2023-04-09T03:14:27.264Z,97142.56
2023-04-09T03:16:55.801Z,97168.59
2023-04-09T03:19:23.996Z,97148.63
2023-04-09T03:21:52.283Z,97193.81
2023-04-09T03:24:25.581Z,97137.59
2023-04-09T03:26:56.168Z,97156.03
2023-04-09T03:29:24.670Z,97165.75
2023-04-09T03:31:52.968Z,97167.88
2023-04-09T03:34:21.467Z,97130.59
2023-04-09T03:36:53.964Z,97197.25
2023-04-09T03:39:30.795Z,97170.97
2023-04-09T03:42:01.792Z,97175.75
2023-04-09T03:44:40.866Z,97142.56
2023-04-09T03:47:12.178Z,97161.22
2023-04-09T03:49:40.993Z,97148.13
2023-04-09T03:52:17.947Z,97166.91
2023-04-09T03:54:52.680Z,97138.63
2023-04-09T03:57:26.104Z,97166.91
2023-04-09T03:59:55.892Z,97181.75
2023-04-09T04:02:27.170Z,97179.50
2023-04-09T04:07:56.109Z,97119.00
2023-04-09T04:10:28.930Z,97204.53
2023-04-09T04:12:58.496Z,97138.22
2023-04-09T04:15:33.441Z,97213.50
2023-04-09T04:18:01.700Z,97119.66
2023-04-09T04:20:40.666Z,97183.00
2023-04-09T04:23:13.283Z,97172.56
2023-04-09T04:25:50.260Z,97163.88
2023-04-09T04:28:26.918Z,97191.66
2023-04-09T04:30:55.717Z,97233.69
2023-04-09T04:33:24.020Z,97171.09
2023-04-09T04:35:55.170Z,96974.03
2023-04-09T04:38:58.697Z,97221.16
2023-04-09T04:41:48.197Z,97188.31
2023-04-09T04:44:23.253Z,97177.97
2023-04-09T04:46:59.201Z,97177.66
2023-04-09T04:49:27.837Z,97276.16
2023-04-09T04:51:56.400Z,97185.72
2023-04-09T04:54:25.433Z,97218.28
2023-04-09T04:56:57.204Z,97180.44
2023-04-09T04:59:38.639Z,97185.56
2023-04-09T05:02:08.279Z,97201.75
2023-04-09T05:04:54.915Z,97226.06
2023-04-09T05:07:30.865Z,97163.06
2023-04-09T05:09:59.711Z,97200.91
2023-04-09T05:12:32.870Z,97216.09
2023-04-09T05:15:03.439Z,97172.03
2023-04-09T05:17:32.133Z,97185.31
2023-04-09T05:20:01.271Z,97153.81
2023-04-09T05:22:38.177Z,97214.59
2023-04-09T05:25:08.518Z,97197.56
2023-04-09T05:27:39.892Z,97184.53
2023-04-09T05:30:11.325Z,97208.53
2023-04-09T05:32:40.716Z,97217.38
2023-04-09T05:35:09.808Z,97199.59
2023-04-09T05:37:41.901Z,97228.25
2023-04-09T05:40:12.235Z,97250.00
2023-04-09T05:42:41.905Z,97241.34
2023-04-09T05:45:17.366Z,97230.75
2023-04-09T05:47:52.869Z,97237.72
2023-04-09T05:50:24.039Z,97232.47
2023-04-09T05:52:55.309Z,97226.41
2023-04-09T05:55:29.329Z,97205.84
2023-04-09T05:58:02.086Z,97209.34
2023-04-09T06:00:31.910Z,97230.19
2023-04-09T06:03:00.140Z,97252.84
2023-04-09T06:05:29.538Z,97177.22
2023-04-09T06:07:57.740Z,97231.66
2023-04-09T06:10:26.293Z,97237.41
2023-04-09T06:12:54.525Z,97224.09
2023-04-09T06:15:22.747Z,97221.25
2023-04-09T06:17:52.304Z,97269.53
2023-04-09T06:20:21.241Z,97233.00
2023-04-09T06:22:49.454Z,97198.50
2023-04-09T06:25:18.052Z,97198.03
2023-04-09T06:27:46.621Z,97201.78
2023-04-09T06:30:15.001Z,97300.59
2023-04-09T06:32:53.167Z,97261.59
2023-04-09T06:35:23.771Z,97190.00
2023-04-09T06:37:52.013Z,97260.44
2023-04-09T06:40:23.021Z,97242.63
2023-04-09T06:42:51.952Z,97210.28
2023-04-09T06:45:29.445Z,97235.06
2023-04-09T06:47:58.068Z,97179.34
2023-04-09T06:50:28.064Z,97136.81
2023-04-09T06:52:56.542Z,97179.16
2023-04-09T06:55:26.862Z,97185.22
2023-04-09T06:57:55.062Z,97244.22
2023-04-09T07:00:24.036Z,97100.13
2023-04-09T07:02:53.525Z,97246.59
2023-04-09T07:05:22.665Z,97329.84
2023-04-09T07:07:52.423Z,97211.38
2023-04-09T07:10:21.171Z,97229.75
2023-04-09T07:12:49.481Z,97278.72
2023-04-09T07:15:17.667Z,97257.03
2023-04-09T07:17:46.019Z,97270.00
2023-04-09T07:20:14.459Z,97247.59
2023-04-09T07:22:42.626Z,97256.88
2023-04-09T07:25:12.245Z,97206.28
2023-04-09T07:27:40.473Z,97253.81
2023-04-09T07:30:10.670Z,97254.78
2023-04-09T07:32:39.019Z,97235.28
2023-04-09T07:35:11.318Z,97238.34
2023-04-09T07:37:40.108Z,97290.31
2023-04-09T07:40:11.553Z,97248.28
2023-04-09T07:42:39.983Z,97255.19
2023-04-09T07:45:09.562Z,97271.19
2023-04-09T07:47:40.796Z,97247.94
2023-04-09T07:50:10.762Z,97266.22
2023-04-09T07:52:39.076Z,97295.53
2023-04-09T07:55:08.138Z,97253.44
2023-04-09T07:57:37.857Z,97233.81
2023-04-09T08:00:08.370Z,97275.28
2023-04-09T08:02:45.154Z,97289.78
2023-04-09T08:05:13.942Z,97254.38
2023-04-09T08:07:42.137Z,97239.94
2023-04-09T08:10:15.134Z,97267.66
2023-04-09T08:12:44.941Z,97248.44
2023-04-09T08:15:13.265Z,97220.91
2023-04-09T08:17:41.540Z,97395.41
2023-04-09T08:20:11.370Z,97228.91
2023-04-09T08:22:41.146Z,97208.63
2023-04-09T08:25:09.838Z,97255.38
2023-04-09T08:27:39.620Z,97267.19
2023-04-09T08:30:11.218Z,97217.06
2023-04-09T08:32:39.407Z,97255.44
2023-04-09T08:35:09.158Z,97236.22
2023-04-09T08:37:37.341Z,97243.09
2023-04-09T08:40:06.772Z,97236.00
2023-04-09T08:42:37.459Z,97234.00
2023-04-09T08:45:08.795Z,97261.59
2023-04-09T08:47:38.147Z,97257.75
2023-04-09T08:50:07.549Z,97254.22
2023-04-09T08:52:36.507Z,97222.16
2023-04-09T08:55:05.302Z,97257.47
2023-04-09T08:57:39.374Z,97240.28
2023-04-09T09:00:10.706Z,97241.72
2023-04-09T09:02:39.438Z,97251.31
2023-04-09T09:05:08.742Z,97208.22
2023-04-09T09:07:36.937Z,97247.94
2023-04-09T09:10:05.731Z,97271.63
2023-04-09T09:12:36.746Z,97259.19
2023-04-09T09:15:06.291Z,97260.69
2023-04-09T09:17:54.795Z,97257.19
2023-04-09T09:20:24.156Z,97262.66
2023-04-09T09:22:55.508Z,97265.28
2023-04-09T09:25:25.854Z,97270.81
2023-04-09T09:27:55.443Z,97246.44
2023-04-09T09:30:25.991Z,97229.91
2023-04-09T09:32:57.486Z,97247.44
2023-04-09T09:35:25.711Z,97234.22
2023-04-09T09:38:05.382Z,97214.41
2023-04-09T09:40:33.784Z,97233.91
2023-04-09T09:43:01.945Z,97272.44
2023-04-09T09:45:31.446Z,97249.13
2023-04-09T09:48:01.626Z,97151.44
2023-04-09T09:50:33.063Z,97240.22
2023-04-09T09:53:05.953Z,97263.66
2023-04-09T09:55:36.117Z,97298.22
2023-04-09T09:58:12.059Z,97225.31
2023-04-09T10:00:42.365Z,97191.91
2023-04-09T10:03:17.050Z,97228.59
2023-04-09T10:05:46.516Z,97206.75
2023-04-09T10:08:14.874Z,97230.09
2023-04-09T10:10:43.425Z,97232.91
2023-04-09T10:13:26.944Z,97247.94
2023-04-09T10:15:55.807Z,97269.25
2023-04-09T10:18:25.525Z,97191.44
2023-04-09T10:21:01.079Z,97217.06
2023-04-09T10:23:39.859Z,97239.69
2023-04-09T10:26:08.498Z,97253.00
2023-04-09T10:28:39.235Z,97248.03
2023-04-09T10:31:08.837Z,97183.72
2023-04-09T10:33:40.107Z,97210.63
2023-04-09T10:36:13.475Z,97250.25
2023-04-09T10:38:47.027Z,97212.41
2023-04-09T10:41:23.061Z,97164.69
2023-04-09T10:43:52.241Z,97212.75
2023-04-09T10:46:28.460Z,97189.28
2023-04-09T10:49:16.406Z,97201.72
2023-04-09T10:51:53.594Z,97228.38
2023-04-09T10:54:46.317Z,97222.91
2023-04-09T10:57:23.004Z,97219.13
2023-04-09T10:59:53.349Z,97204.34
2023-04-09T11:03:15.038Z,97226.81
2023-04-09T11:05:45.938Z,97203.31
2023-04-09T11:08:15.990Z,97207.03
2023-04-09T11:10:49.025Z,97210.25
2023-04-09T11:13:20.013Z,97218.19
2023-04-09T11:15:49.371Z,97222.50
2023-04-09T11:18:22.063Z,97221.75
2023-04-09T11:20:52.248Z,97196.75
2023-04-09T11:23:20.812Z,97173.41
2023-04-09T11:25:51.806Z,97209.88
2023-04-09T11:28:22.039Z,97177.28
2023-04-09T11:30:52.763Z,97193.69
2023-04-09T11:33:21.413Z,97179.75
2023-04-09T11:35:52.165Z,97173.00
2023-04-09T11:38:20.555Z,97207.59
2023-04-09T11:40:49.545Z,97193.53
2023-04-09T11:43:20.717Z,97111.84
2023-04-09T11:45:49.358Z,97235.38
2023-04-09T11:48:19.158Z,97174.84
2023-04-09T11:50:47.814Z,97216.41
2023-04-09T11:53:22.061Z,97217.38
2023-04-09T11:55:52.917Z,97182.81
2023-04-09T11:58:25.045Z,97218.22
2023-04-09T12:00:56.175Z,97219.91
2023-04-09T12:03:33.725Z,97156.56
2023-04-09T12:06:22.850Z,97193.91
2023-04-09T12:08:55.598Z,97218.00
2023-04-09T12:11:29.849Z,97152.34
2023-04-09T12:14:01.335Z,97199.03
2023-04-09T12:16:32.320Z,97105.72
2023-04-09T12:19:02.612Z,97162.41
2023-04-09T12:21:49.396Z,97204.47
2023-04-09T12:24:21.660Z,97197.63
2023-04-09T12:26:50.421Z,97217.06
2023-04-09T12:29:21.588Z,97221.97
2023-04-09T12:31:49.891Z,97206.22
2023-04-09T12:34:18.257Z,97118.91
2023-04-09T12:36:46.514Z,97205.75
2023-04-09T12:39:14.701Z,97355.06
2023-04-09T12:41:44.824Z,97195.84
2023-04-09T12:44:13.172Z,97152.16
2023-04-09T12:46:41.493Z,97212.28
2023-04-09T12:49:09.702Z,97187.47
2023-04-09T12:51:37.965Z,97211.06
2023-04-09T12:54:06.272Z,97241.88
2023-04-09T12:56:34.466Z,97157.16
2023-04-09T12:59:03.973Z,97179.75
2023-04-09T13:01:32.303Z,97136.59
2023-04-09T13:04:00.720Z,97168.50
2023-04-09T13:06:29.053Z,97152.91
2023-04-09T13:08:57.222Z,97191.38
2023-04-09T13:11:25.488Z,97215.69
2023-04-09T13:13:53.992Z,97173.94
2023-04-09T13:16:23.767Z,97189.41
2023-04-09T13:18:52.524Z,97169.41
2023-04-09T13:21:20.892Z,97175.38
2023-04-09T13:23:49.071Z,97149.41
2023-04-09T13:26:17.433Z,97148.78
2023-04-09T13:28:45.641Z,97122.75
2023-04-09T13:31:13.882Z,97201.44
2023-04-09T13:33:43.501Z,97165.97
2023-04-09T13:36:12.187Z,97151.63
2023-04-09T13:38:40.649Z,97176.94
2023-04-09T13:41:08.922Z,97148.88
2023-04-09T13:43:37.724Z,97135.13
2023-04-09T13:46:06.622Z,97132.31
2023-04-09T13:48:34.855Z,97110.28
2023-04-09T13:51:04.868Z,97179.13
2023-04-09T13:53:33.130Z,97149.63
2023-04-09T13:56:01.424Z,97087.91
2023-04-09T13:58:29.690Z,97133.06
2023-04-09T14:00:58.432Z,97124.84
2023-04-09T14:03:26.797Z,97095.38
2023-04-09T14:05:56.589Z,97174.28
2023-04-09T14:08:26.272Z,97117.19
2023-04-09T14:10:54.530Z,97115.31
2023-04-09T14:13:23.164Z,97189.34
2023-04-09T14:15:51.443Z,97116.72
2023-04-09T14:18:19.662Z,97111.25
2023-04-09T14:20:47.939Z,97115.09
2023-04-09T14:23:16.386Z,97077.03
2023-04-09T14:25:46.041Z,97104.72
2023-04-09T14:28:14.252Z,97118.59
2023-04-09T14:30:42.433Z,97093.53
2023-04-09T14:33:10.738Z,97123.59
2023-04-09T14:35:39.095Z,97139.16
2023-04-09T14:38:07.749Z,97085.47
2023-04-09T14:40:37.354Z,97194.44
2023-04-09T14:43:06.889Z,97133.56
2023-04-09T14:45:35.158Z,97115.38
2023-04-09T14:48:03.529Z,97055.16
2023-04-09T14:50:33.915Z,97131.97
2023-04-09T14:53:02.394Z,97108.63
2023-04-09T14:55:30.946Z,97093.00
2023-04-09T14:58:01.553Z,97127.69
2023-04-09T15:00:31.436Z,97074.53
2023-04-09T15:03:00.137Z,97084.84
2023-04-09T15:05:28.436Z,97133.25
2023-04-09T15:07:58.244Z,97142.47
2023-04-09T15:10:26.494Z,97069.22
2023-04-09T15:12:55.513Z,97147.91
2023-04-09T15:15:23.883Z,97092.72
2023-04-09T15:17:53.452Z,96966.91
2023-04-09T15:20:21.894Z,97105.03
2023-04-09T15:22:50.083Z,97053.25
2023-04-09T15:25:18.324Z,97091.44
2023-04-09T15:27:46.916Z,97033.63
2023-04-09T15:30:15.123Z,97099.41
2023-04-09T15:32:43.362Z,97048.78
2023-04-09T15:35:14.341Z,97082.84
2023-04-09T15:37:42.528Z,97077.69
2023-04-09T15:40:12.086Z,97100.69
2023-04-09T15:42:40.359Z,97025.22
2023-04-09T15:45:10.740Z,96997.34
2023-04-09T15:47:39.513Z,97077.13
2023-04-09T15:50:09.804Z,97175.59
2023-04-09T15:52:39.528Z,97083.63
2023-04-09T15:55:09.147Z,97112.31
2023-04-09T15:57:38.359Z,97091.56
2023-04-09T16:00:10.557Z,97100.59
2023-04-09T16:03:04.341Z,97059.09
2023-04-09T16:05:32.512Z,97093.69
2023-04-09T16:08:03.559Z,97085.09
2023-04-09T16:10:32.109Z,97103.06
2023-04-09T16:13:00.330Z,97116.22
2023-04-09T16:15:28.598Z,97122.59
2023-04-09T16:17:56.939Z,97088.22
2023-04-09T16:20:25.297Z,97101.84
2023-04-09T16:22:53.855Z,97112.13
2023-04-09T16:25:24.493Z,97153.34
2023-04-09T16:27:53.078Z,97186.97
2023-04-09T16:30:27.575Z,97121.91
2023-04-09T16:32:56.541Z,97102.28
2023-04-09T16:35:25.011Z,97093.44
2023-04-09T16:37:53.318Z,97111.94
2023-04-09T16:40:24.413Z,97058.47
2023-04-09T16:42:52.672Z,97097.56
2023-04-09T16:45:20.981Z,97025.16
2023-04-09T16:47:51.411Z,97090.22
2023-04-09T16:50:20.991Z,97065.38
2023-04-09T16:52:49.344Z,97110.63
2023-04-09T16:55:17.730Z,97084.63
2023-04-09T16:57:47.297Z,97079.75
2023-04-09T17:00:17.465Z,97111.22
2023-04-09T17:02:46.268Z,97085.81
2023-04-09T17:05:15.978Z,97120.59
2023-04-09T17:07:44.564Z,97099.13
2023-04-09T17:10:13.074Z,97091.78
2023-04-09T17:12:42.078Z,97090.84
2023-04-09T17:15:13.111Z,97050.44
2023-04-09T17:17:41.409Z,97129.09
2023-04-09T17:20:14.156Z,97097.13
2023-04-09T17:22:42.329Z,97090.47
2023-04-09T17:25:11.086Z,97112.78
2023-04-09T17:27:39.214Z,97083.28
2023-04-09T17:30:08.817Z,97057.25
2023-04-09T17:32:39.310Z,97105.66
2023-04-09T17:35:08.805Z,97130.41
2023-04-09T17:37:38.130Z,97086.94
2023-04-09T17:40:08.045Z,97075.59
2023-04-09T17:42:36.195Z,97175.88
2023-04-09T17:45:05.672Z,97135.47
2023-04-09T17:47:33.877Z,97088.25
2023-04-09T17:50:04.374Z,97113.66
2023-04-09T17:52:36.689Z,97144.78
2023-04-09T17:55:08.019Z,97118.66
2023-04-09T17:57:36.715Z,97141.41
2023-04-09T18:00:06.094Z,97131.88
2023-04-09T18:02:34.604Z,97112.75
2023-04-09T18:05:07.260Z,97071.66
2023-04-09T18:07:35.952Z,97149.66
2023-04-09T18:10:05.482Z,97105.75
2023-04-09T18:12:34.221Z,97170.63
2023-04-09T18:15:04.223Z,97125.38
2023-04-09T18:17:32.485Z,97133.75
2023-04-09T18:20:00.823Z,97140.31
2023-04-09T18:22:30.738Z,97050.81
2023-04-09T18:24:58.946Z,97117.75
2023-04-09T18:27:27.139Z,97173.25
2023-04-09T18:29:55.910Z,97163.75
2023-04-09T18:32:25.255Z,97164.59
2023-04-09T18:34:53.570Z,97156.41
2023-04-09T18:37:22.521Z,97138.00
2023-04-09T18:39:52.057Z,97206.66
2023-04-09T18:42:20.269Z,97123.88
2023-04-09T18:44:48.767Z,97107.78
2023-04-09T18:47:17.009Z,97178.19
2023-04-09T18:49:45.209Z,97177.97
2023-04-09T18:52:13.384Z,97178.34
2023-04-09T18:54:41.596Z,97151.91
2023-04-09T18:57:11.197Z,97176.47
2023-04-09T18:59:40.361Z,97147.47
2023-04-09T19:02:08.635Z,97144.38
2023-04-09T19:04:39.700Z,97209.84
2023-04-09T19:07:08.790Z,97181.25
2023-04-09T19:09:37.416Z,97169.66
2023-04-09T19:12:06.563Z,97136.97
2023-04-09T19:14:36.488Z,97236.06
2023-04-09T19:17:04.701Z,97213.69
2023-04-09T19:19:33.233Z,97224.47
2023-04-09T19:22:01.695Z,97202.66
2023-04-09T19:24:30.037Z,97175.03
2023-04-09T19:26:59.458Z,97258.53
2023-04-09T19:29:27.643Z,97131.81
2023-04-09T19:31:57.247Z,97181.44
2023-04-09T19:34:25.548Z,97214.28
2023-04-09T19:36:53.689Z,97255.44
2023-04-09T19:39:21.999Z,97217.88
2023-04-09T19:41:50.298Z,97252.41
2023-04-09T19:44:18.469Z,97230.72
2023-04-09T19:46:46.680Z,97085.13
2023-04-09T19:49:17.591Z,97122.63
2023-04-09T19:51:45.782Z,97195.19
2023-04-09T19:54:15.225Z,97240.78
2023-04-09T19:56:43.598Z,97211.03
2023-04-09T19:59:11.784Z,97293.34
2023-04-09T20:01:40.040Z,97221.41
2023-04-09T20:04:14.347Z,97234.06
2023-04-09T20:06:48.495Z,97204.97
2023-04-09T20:09:18.144Z,97217.66
2023-04-09T20:11:46.579Z,97277.22
2023-04-09T20:14:14.820Z,97243.50
2023-04-09T20:16:43.030Z,97240.19
2023-04-09T20:19:11.244Z,97257.31
2023-04-09T20:21:39.453Z,97217.50
2023-04-09T20:24:09.141Z,97261.13
2023-04-09T20:26:37.388Z,97259.88
2023-04-09T20:29:06.381Z,97246.69
2023-04-09T20:31:36.108Z,97254.75
2023-04-09T20:34:04.334Z,97204.75
2023-04-09T20:36:32.503Z,97219.63
2023-04-09T20:39:00.717Z,97252.91
2023-04-09T20:41:30.607Z,97224.41
2023-04-09T20:43:58.775Z,97151.41
2023-04-09T20:46:27.098Z,97232.72
2023-04-09T20:48:56.149Z,97209.66
2023-04-09T20:51:24.773Z,97213.31
2023-04-09T20:53:53.067Z,97206.28
2023-04-09T20:56:21.233Z,97226.91
2023-04-09T20:58:50.840Z,97199.78
2023-04-09T21:01:19.865Z,97248.56
2023-04-09T21:03:48.166Z,97238.88
2023-04-09T21:06:17.520Z,97218.44
2023-04-09T21:08:45.767Z,97219.72
2023-04-09T21:11:14.879Z,97242.09
2023-04-09T21:13:53.852Z,97219.31
2023-04-09T21:16:26.050Z,97255.47
2023-04-09T21:18:54.517Z,97203.38
2023-04-09T21:21:23.398Z,97262.59
2023-04-09T21:23:51.617Z,97234.06
2023-04-09T21:26:19.816Z,97204.19
2023-04-09T21:28:50.555Z,97226.94
2023-04-09T21:31:18.970Z,97184.59
2023-04-09T21:33:48.527Z,97199.44
2023-04-09T21:36:16.764Z,97157.06
2023-04-09T21:38:44.958Z,97218.16
2023-04-09T21:41:13.112Z,97213.44
2023-04-09T21:43:41.845Z,97156.44
2023-04-09T21:46:10.109Z,97239.88
2023-04-09T21:48:39.499Z,97234.63
2023-04-09T21:51:12.188Z,97193.75
2023-04-09T21:53:40.466Z,97254.28
2023-04-09T21:56:09.441Z,97217.34
2023-04-09T21:58:37.633Z,97252.28
2023-04-09T22:01:11.005Z,97209.03
2023-04-09T22:03:51.934Z,97267.25
2023-04-09T22:06:21.492Z,97253.72
2023-04-09T22:08:56.309Z,97241.41
2023-04-09T22:11:28.393Z,97253.75
2023-04-09T22:13:58.054Z,97194.75
2023-04-09T22:16:27.950Z,97188.34
2023-04-09T22:18:56.705Z,97248.25
2023-04-09T22:21:27.635Z,97220.97
2023-04-09T22:23:55.948Z,97228.94
2023-04-09T22:26:24.228Z,97225.50
2023-04-09T22:28:52.705Z,97251.81
2023-04-09T22:31:21.555Z,97226.31
2023-04-09T22:33:49.765Z,97234.63
2023-04-09T22:36:17.947Z,97216.59
2023-04-09T22:38:47.483Z,97235.72
2023-04-09T22:41:17.417Z,97237.84
2023-04-09T22:43:45.648Z,97214.31
2023-04-09T22:46:13.888Z,97257.50
2023-04-09T22:48:58.903Z,97271.72
2023-04-09T22:51:30.736Z,97232.84
2023-04-09T22:54:00.377Z,97215.13
2023-04-09T22:56:28.724Z,97247.66
2023-04-09T22:58:56.922Z,97246.00
2023-04-09T23:01:25.242Z,97221.81
2023-04-09T23:03:53.488Z,97221.59
2023-04-09T23:06:22.329Z,97222.56
2023-04-09T23:08:50.650Z,97227.28
2023-04-09T23:11:20.985Z,97262.88
2023-04-09T23:13:49.314Z,97203.88
2023-04-09T23:16:17.595Z,97248.16
2023-04-09T23:18:46.037Z,97220.88
2023-04-09T23:21:14.212Z,97215.81
2023-04-09T23:23:42.360Z,97191.19
2023-04-09T23:26:10.509Z,97233.25
2023-04-09T23:28:40.057Z,97249.09
2023-04-09T23:31:08.502Z,97242.50
2023-04-09T23:33:36.771Z,97237.19
2023-04-09T23:36:05.995Z,97222.28
2023-04-09T23:38:34.246Z,97155.38
2023-04-09T23:41:02.471Z,97165.31
2023-04-09T23:43:30.649Z,97204.38
2023-04-09T23:46:00.167Z,97229.34
2023-04-09T23:48:29.985Z,97185.38
2023-04-09T23:50:59.578Z,97212.06
2023-04-09T23:53:27.756Z,97233.28
2023-04-09T23:55:55.873Z,97187.31
2023-04-09T23:58:24.107Z,97216.97
